sensor_id;sensor_type;location;lat;lon;timestamp;pressure;altitude;pressure_sealevel;temperature;humidity
52032;BME280;38044;45.148;39.604;2022-12-24T00:01:14;101054.75;;;-1.95;83.00
52032;BME280;38044;45.148;39.604;2022-12-24T00:03:39;101167.59;;;-1.29;83.29
52032;BME280;38044;45.148;39.604;2022-12-24T00:06:15;101165.00;;;-1.23;83.33
52032;BME280;38044;45.148;39.604;2022-12-24T00:08:41;101176.78;;;-1.12;82.85
52032;BME280;38044;45.148;39.604;2022-12-24T00:11:07;101179.63;;;-1.20;83.05
52032;BME280;38044;45.148;39.604;2022-12-24T00:13:33;101178.56;;;-1.26;82.92
52032;BME280;38044;45.148;39.604;2022-12-24T00:15:59;101132.81;;;-1.46;82.85
52032;BME280;38044;45.148;39.604;2022-12-24T00:18:25;101168.38;;;-1.29;82.83
52032;BME280;38044;45.148;39.604;2022-12-24T00:20:51;101139.75;;;-1.45;83.16
52032;BME280;38044;45.148;39.604;2022-12-24T00:23:18;101195.22;;;-1.19;83.13
52032;BME280;38044;45.148;39.604;2022-12-24T00:25:44;101147.84;;;-1.47;83.09
52032;BME280;38044;45.148;39.604;2022-12-24T00:28:10;101155.16;;;-1.42;82.91
52032;BME280;38044;45.148;39.604;2022-12-24T00:30:41;101101.88;;;-1.79;83.02
52032;BME280;38044;45.148;39.604;2022-12-24T00:33:07;101100.59;;;-1.90;82.92
52032;BME280;38044;45.148;39.604;2022-12-24T00:35:34;101151.09;;;-1.51;82.90
52032;BME280;38044;45.148;39.604;2022-12-24T00:37:59;101159.97;;;-1.52;82.99
52032;BME280;38044;45.148;39.604;2022-12-24T00:40:25;101176.81;;;-1.53;82.73
52032;BME280;38044;45.148;39.604;2022-12-24T00:42:51;101169.75;;;-1.46;82.77
52032;BME280;38044;45.148;39.604;2022-12-24T00:45:17;100992.44;;;-2.58;82.78
52032;BME280;38044;45.148;39.604;2022-12-24T00:47:43;101147.97;;;-1.62;83.11
52032;BME280;38044;45.148;39.604;2022-12-24T00:50:09;101162.03;;;-1.54;83.00
52032;BME280;38044;45.148;39.604;2022-12-24T00:52:34;101076.19;;;-2.12;83.05
52032;BME280;38044;45.148;39.604;2022-12-24T00:55:00;101142.31;;;-1.59;82.98
52032;BME280;38044;45.148;39.604;2022-12-24T00:57:26;101144.16;;;-1.59;82.81
52032;BME280;38044;45.148;39.604;2022-12-24T00:59:52;101165.25;;;-1.52;83.25
52032;BME280;38044;45.148;39.604;2022-12-24T01:02:18;101122.16;;;-1.73;83.15
52032;BME280;38044;45.148;39.604;2022-12-24T01:04:44;101127.47;;;-1.66;83.14
52032;BME280;38044;45.148;39.604;2022-12-24T01:07:28;101138.66;;;-1.58;83.02
52032;BME280;38044;45.148;39.604;2022-12-24T01:09:53;101123.19;;;-1.74;83.48
52032;BME280;38044;45.148;39.604;2022-12-24T01:12:19;101156.75;;;-1.54;83.65
52032;BME280;38044;45.148;39.604;2022-12-24T01:14:46;101101.63;;;-1.84;83.41
52032;BME280;38044;45.148;39.604;2022-12-24T01:17:11;101120.94;;;-1.77;83.51
52032;BME280;38044;45.148;39.604;2022-12-24T01:19:37;101114.03;;;-1.78;83.46
52032;BME280;38044;45.148;39.604;2022-12-24T01:22:03;101123.78;;;-1.72;83.30
52032;BME280;38044;45.148;39.604;2022-12-24T01:24:29;101112.41;;;-1.79;82.89
52032;BME280;38044;45.148;39.604;2022-12-24T01:26:55;101177.44;;;-1.51;82.75
52032;BME280;38044;45.148;39.604;2022-12-24T01:29:20;101117.59;;;-1.92;82.76
52032;BME280;38044;45.148;39.604;2022-12-24T01:31:46;101133.09;;;-1.76;82.61
52032;BME280;38044;45.148;39.604;2022-12-24T01:34:12;101009.88;;;-2.57;82.49
52032;BME280;38044;45.148;39.604;2022-12-24T01:36:38;101135.34;;;-1.79;82.56
52032;BME280;38044;45.148;39.604;2022-12-24T01:39:04;101144.66;;;-1.77;82.25
52032;BME280;38044;45.148;39.604;2022-12-24T01:41:30;101152.97;;;-1.80;82.52
52032;BME280;38044;45.148;39.604;2022-12-24T01:44:27;101140.75;;;-1.88;82.68
52032;BME280;38044;45.148;39.604;2022-12-24T01:50:14;101133.41;;;-1.92;83.19
52032;BME280;38044;45.148;39.604;2022-12-24T01:52:42;101051.06;;;-2.42;82.75
52032;BME280;38044;45.148;39.604;2022-12-24T01:55:13;101068.97;;;-2.31;83.26
52032;BME280;38044;45.148;39.604;2022-12-24T01:57:47;101153.81;;;-1.73;82.97
52032;BME280;38044;45.148;39.604;2022-12-24T02:00:13;101146.13;;;-1.68;82.89
52032;BME280;38044;45.148;39.604;2022-12-24T02:02:42;101154.81;;;-1.74;82.71
52032;BME280;38044;45.148;39.604;2022-12-24T02:05:16;101160.69;;;-1.72;82.76
52032;BME280;38044;45.148;39.604;2022-12-24T02:07:43;101122.84;;;-1.99;82.70
52032;BME280;38044;45.148;39.604;2022-12-24T02:10:11;101022.41;;;-2.59;82.59
52032;BME280;38044;45.148;39.604;2022-12-24T02:12:38;101014.28;;;-2.64;82.61
52032;BME280;38044;45.148;39.604;2022-12-24T02:15:09;101137.84;;;-1.99;82.92
52032;BME280;38044;45.148;39.604;2022-12-24T02:17:58;101066.25;;;-2.44;83.12
52032;BME280;38044;45.148;39.604;2022-12-24T02:20:42;101149.84;;;-1.97;83.03
52032;BME280;38044;45.148;39.604;2022-12-24T02:23:39;101141.44;;;-2.07;83.34
52032;BME280;38044;45.148;39.604;2022-12-24T02:29:25;101150.78;;;-2.05;83.33
52032;BME280;38044;45.148;39.604;2022-12-24T02:32:02;101066.44;;;-2.74;83.06
52032;BME280;38044;45.148;39.604;2022-12-24T02:34:47;101144.44;;;-2.17;83.18
52032;BME280;38044;45.148;39.604;2022-12-24T02:37:21;101122.25;;;-2.29;83.09
52032;BME280;38044;45.148;39.604;2022-12-24T02:39:58;101059.16;;;-2.72;83.17
52032;BME280;38044;45.148;39.604;2022-12-24T02:42:34;101139.88;;;-2.30;83.18
52032;BME280;38044;45.148;39.604;2022-12-24T02:47:30;101172.16;;;-2.21;83.17
52032;BME280;38044;45.148;39.604;2022-12-24T02:49:59;101152.66;;;-2.27;83.31
52032;BME280;38044;45.148;39.604;2022-12-24T02:52:40;101132.56;;;-2.34;83.20
52032;BME280;38044;45.148;39.604;2022-12-24T03:04:00;101152.22;;;-2.30;82.83
52032;BME280;38044;45.148;39.604;2022-12-24T03:06:58;101169.66;;;-2.29;82.61
52032;BME280;38044;45.148;39.604;2022-12-24T03:09:29;101115.81;;;-2.55;82.52
52032;BME280;38044;45.148;39.604;2022-12-24T03:12:03;101130.97;;;-2.57;82.68
52032;BME280;38044;45.148;39.604;2022-12-24T03:14:32;101113.09;;;-2.61;82.77
52032;BME280;38044;45.148;39.604;2022-12-24T03:16:59;101159.03;;;-2.42;82.75
52032;BME280;38044;45.148;39.604;2022-12-24T03:19:27;101161.78;;;-2.51;82.94
52032;BME280;38044;45.148;39.604;2022-12-24T03:21:56;101103.59;;;-2.84;83.32
52032;BME280;38044;45.148;39.604;2022-12-24T03:24:23;101127.19;;;-2.69;83.18
52032;BME280;38044;45.148;39.604;2022-12-24T03:26:49;101154.53;;;-2.48;83.35
52032;BME280;38044;45.148;39.604;2022-12-24T03:29:16;101117.13;;;-2.65;83.03
52032;BME280;38044;45.148;39.604;2022-12-24T03:31:47;101123.00;;;-2.63;82.66
52032;BME280;38044;45.148;39.604;2022-12-24T03:34:14;101085.94;;;-2.90;82.57
52032;BME280;38044;45.148;39.604;2022-12-24T03:36:41;101141.88;;;-2.60;82.79
52032;BME280;38044;45.148;39.604;2022-12-24T03:39:07;101162.44;;;-2.48;83.25
52032;BME280;38044;45.148;39.604;2022-12-24T03:41:34;101030.28;;;-3.36;82.88
52032;BME280;38044;45.148;39.604;2022-12-24T03:44:00;101166.44;;;-2.53;83.10
52032;BME280;38044;45.148;39.604;2022-12-24T03:46:26;101159.94;;;-2.57;82.87
52032;BME280;38044;45.148;39.604;2022-12-24T03:48:53;101001.66;;;-3.68;82.54
52032;BME280;38044;45.148;39.604;2022-12-24T03:51:23;101174.44;;;-2.61;82.62
52032;BME280;38044;45.148;39.604;2022-12-24T03:53:54;101159.66;;;-2.62;82.38
52032;BME280;38044;45.148;39.604;2022-12-24T03:56:20;101146.88;;;-2.86;82.36
52032;BME280;38044;45.148;39.604;2022-12-24T03:58:46;101162.13;;;-2.82;82.61
52032;BME280;38044;45.148;39.604;2022-12-24T04:01:13;101038.78;;;-3.56;82.65
52032;BME280;38044;45.148;39.604;2022-12-24T04:03:39;101174.22;;;-2.66;82.91
52032;BME280;38044;45.148;39.604;2022-12-24T04:06:11;101154.78;;;-2.65;82.69
52032;BME280;38044;45.148;39.604;2022-12-24T04:08:38;101041.44;;;-3.34;82.10
52032;BME280;38044;45.148;39.604;2022-12-24T04:11:04;101167.41;;;-2.60;82.24
52032;BME280;38044;45.148;39.604;2022-12-24T04:13:31;101176.69;;;-2.58;82.25
52032;BME280;38044;45.148;39.604;2022-12-24T04:16:05;101173.94;;;-2.50;82.27
52032;BME280;38044;45.148;39.604;2022-12-24T04:18:33;101164.94;;;-2.62;82.24
52032;BME280;38044;45.148;39.604;2022-12-24T04:21:00;101174.31;;;-2.53;82.02
52032;BME280;38044;45.148;39.604;2022-12-24T04:23:30;101168.97;;;-2.66;82.04
52032;BME280;38044;45.148;39.604;2022-12-24T04:25:59;101177.03;;;-2.67;81.78
52032;BME280;38044;45.148;39.604;2022-12-24T04:28:25;101060.22;;;-3.37;81.64
52032;BME280;38044;45.148;39.604;2022-12-24T04:30:51;101186.41;;;-2.58;81.87
52032;BME280;38044;45.148;39.604;2022-12-24T04:33:22;101152.66;;;-2.76;81.59
52032;BME280;38044;45.148;39.604;2022-12-24T04:35:47;101167.69;;;-2.70;81.66
52032;BME280;38044;45.148;39.604;2022-12-24T04:38:13;101046.91;;;-3.51;81.69
52032;BME280;38044;45.148;39.604;2022-12-24T04:40:39;101178.41;;;-2.72;82.01
52032;BME280;38044;45.148;39.604;2022-12-24T04:43:05;101115.97;;;-3.06;81.78
52032;BME280;38044;45.148;39.604;2022-12-24T04:45:31;101096.16;;;-3.23;81.43
52032;BME280;38044;45.148;39.604;2022-12-24T04:47:57;101165.44;;;-2.95;81.61
52032;BME280;38044;45.148;39.604;2022-12-24T04:50:23;101170.44;;;-2.78;81.96
52032;BME280;38044;45.148;39.604;2022-12-24T04:52:48;101148.44;;;-2.92;81.73
52032;BME280;38044;45.148;39.604;2022-12-24T04:55:14;101012.66;;;-3.79;81.66
52032;BME280;38044;45.148;39.604;2022-12-24T04:57:40;101124.81;;;-3.07;81.66
52032;BME280;38044;45.148;39.604;2022-12-24T05:00:07;101080.59;;;-3.40;81.46
52032;BME280;38044;45.148;39.604;2022-12-24T05:02:33;101133.53;;;-3.06;81.67
52032;BME280;38044;45.148;39.604;2022-12-24T05:04:58;101183.84;;;-2.73;81.65
52032;BME280;38044;45.148;39.604;2022-12-24T05:07:24;101165.19;;;-2.78;81.69
52032;BME280;38044;45.148;39.604;2022-12-24T05:09:50;101118.75;;;-3.07;81.33
52032;BME280;38044;45.148;39.604;2022-12-24T05:12:16;101184.28;;;-2.69;81.18
52032;BME280;38044;45.148;39.604;2022-12-24T05:14:42;101187.63;;;-2.61;81.17
52032;BME280;38044;45.148;39.604;2022-12-24T05:17:08;101057.97;;;-3.19;81.21
52032;BME280;38044;45.148;39.604;2022-12-24T05:19:33;101189.69;;;-2.07;80.54
52032;BME280;38044;45.148;39.604;2022-12-24T05:21:59;101104.78;;;-2.37;80.18
52032;BME280;38044;45.148;39.604;2022-12-24T05:24:43;100943.94;;;-3.11;79.57
52032;BME280;38044;45.148;39.604;2022-12-24T05:27:28;101157.34;;;-1.52;78.79
52032;BME280;38044;45.148;39.604;2022-12-24T05:29:54;101189.78;;;-1.04;77.96
52032;BME280;38044;45.148;39.604;2022-12-24T05:32:20;101172.78;;;-0.75;77.23
52032;BME280;38044;45.148;39.604;2022-12-24T05:34:46;101083.84;;;-0.94;75.92
52032;BME280;38044;45.148;39.604;2022-12-24T05:37:12;101111.09;;;-0.54;75.21
52032;BME280;38044;45.148;39.604;2022-12-24T05:39:37;101150.28;;;-0.11;74.77
52032;BME280;38044;45.148;39.604;2022-12-24T05:42:10;101200.78;;;0.53;73.97
52032;BME280;38044;45.148;39.604;2022-12-24T05:44:44;101197.63;;;0.76;73.74
52032;BME280;38044;45.148;39.604;2022-12-24T05:47:10;101198.53;;;1.01;72.84
52032;BME280;38044;45.148;39.604;2022-12-24T05:49:36;101135.22;;;0.93;72.35
52032;BME280;38044;45.148;39.604;2022-12-24T05:52:04;100991.41;;;0.42;71.57
52032;BME280;38044;45.148;39.604;2022-12-24T05:54:30;101195.22;;;2.38;70.81
52032;BME280;38044;45.148;39.604;2022-12-24T05:56:56;101043.31;;;2.24;68.74
52032;BME280;38044;45.148;39.604;2022-12-24T05:59:22;101193.88;;;3.79;66.44
52032;BME280;38044;45.148;39.604;2022-12-24T06:01:48;101212.28;;;4.28;64.52
52032;BME280;38044;45.148;39.604;2022-12-24T06:04:14;101203.56;;;4.56;63.49
52032;BME280;38044;45.148;39.604;2022-12-24T06:06:39;101152.50;;;4.88;62.78
52032;BME280;38044;45.148;39.604;2022-12-24T06:09:05;101221.22;;;5.77;60.63
52032;BME280;38044;45.148;39.604;2022-12-24T06:11:35;101197.00;;;5.95;59.00
52032;BME280;38044;45.148;39.604;2022-12-24T06:14:03;101081.59;;;5.15;58.17
52032;BME280;38044;45.148;39.604;2022-12-24T06:16:29;101198.91;;;5.83;58.36
52032;BME280;38044;45.148;39.604;2022-12-24T06:18:58;101194.94;;;5.85;58.21
52032;BME280;38044;45.148;39.604;2022-12-24T06:21:31;101081.09;;;4.16;59.24
52032;BME280;38044;45.148;39.604;2022-12-24T06:23:57;101213.56;;;4.25;60.96
52032;BME280;38044;45.148;39.604;2022-12-24T06:26:23;101124.41;;;3.64;62.24
52032;BME280;38044;45.148;39.604;2022-12-24T06:28:49;101123.63;;;4.39;60.64
52032;BME280;38044;45.148;39.604;2022-12-24T06:31:18;101218.00;;;6.08;59.17
52032;BME280;38044;45.148;39.604;2022-12-24T06:33:44;101127.75;;;6.49;57.20
52032;BME280;38044;45.148;39.604;2022-12-24T06:36:15;101238.31;;;8.06;54.55
52032;BME280;38044;45.148;39.604;2022-12-24T06:38:42;101220.50;;;8.64;53.73
52032;BME280;38044;45.148;39.604;2022-12-24T06:41:07;101129.88;;;8.66;52.45
52032;BME280;38044;45.148;39.604;2022-12-24T06:43:34;101095.88;;;8.72;51.12
52032;BME280;38044;45.148;39.604;2022-12-24T06:46:01;101103.41;;;8.90;50.50
52032;BME280;38044;45.148;39.604;2022-12-24T06:48:27;101229.84;;;9.70;49.85
52032;BME280;38044;45.148;39.604;2022-12-24T06:50:53;101107.41;;;8.67;49.19
52032;BME280;38044;45.148;39.604;2022-12-24T06:53:18;101205.88;;;9.08;50.13
52032;BME280;38044;45.148;39.604;2022-12-24T06:55:44;101135.47;;;8.49;50.51
52032;BME280;38044;45.148;39.604;2022-12-24T06:58:11;101177.69;;;8.85;50.49
52032;BME280;38044;45.148;39.604;2022-12-24T07:00:37;101225.78;;;9.27;49.62
52032;BME280;38044;45.148;39.604;2022-12-24T07:03:03;101070.34;;;8.49;49.54
52032;BME280;38044;45.148;39.604;2022-12-24T07:05:29;101212.38;;;9.93;48.88
52032;BME280;38044;45.148;39.604;2022-12-24T07:07:55;101142.28;;;9.90;48.13
52032;BME280;38044;45.148;39.604;2022-12-24T07:10:21;101193.53;;;10.29;47.54
52032;BME280;38044;45.148;39.604;2022-12-24T07:12:47;101128.75;;;10.21;47.28
52032;BME280;38044;45.148;39.604;2022-12-24T07:15:15;101224.22;;;10.88;47.11
52032;BME280;38044;45.148;39.604;2022-12-24T07:17:41;101216.69;;;10.90;46.75
52032;BME280;38044;45.148;39.604;2022-12-24T07:20:10;101188.38;;;10.98;46.71
52032;BME280;38044;45.148;39.604;2022-12-24T07:22:37;101117.34;;;10.59;46.00
52032;BME280;38044;45.148;39.604;2022-12-24T07:25:03;101222.66;;;10.82;45.00
52032;BME280;38044;45.148;39.604;2022-12-24T07:27:29;101204.72;;;10.57;46.23
52032;BME280;38044;45.148;39.604;2022-12-24T07:29:55;101083.84;;;9.46;46.72
52032;BME280;38044;45.148;39.604;2022-12-24T07:32:21;101079.56;;;9.19;47.37
52032;BME280;38044;45.148;39.604;2022-12-24T07:34:47;101094.06;;;9.34;47.60
52032;BME280;38044;45.148;39.604;2022-12-24T07:37:13;101103.16;;;9.43;46.88
52032;BME280;38044;45.148;39.604;2022-12-24T07:39:39;101095.09;;;9.53;46.74
52032;BME280;38044;45.148;39.604;2022-12-24T07:42:04;101216.28;;;10.57;46.67
52032;BME280;38044;45.148;39.604;2022-12-24T07:44:33;101192.41;;;10.41;46.34
52032;BME280;38044;45.148;39.604;2022-12-24T07:46:58;101190.81;;;10.34;46.44
52032;BME280;38044;45.148;39.604;2022-12-24T07:49:24;101171.75;;;10.21;46.95
52032;BME280;38044;45.148;39.604;2022-12-24T07:51:50;101150.03;;;10.27;46.88
52032;BME280;38044;45.148;39.604;2022-12-24T07:54:16;101127.69;;;10.27;47.35
52032;BME280;38044;45.148;39.604;2022-12-24T07:56:42;101050.38;;;10.03;47.00
52032;BME280;38044;45.148;39.604;2022-12-24T07:59:11;101160.94;;;11.01;46.34
52032;BME280;38044;45.148;39.604;2022-12-24T08:01:37;101130.69;;;10.80;46.33
52032;BME280;38044;45.148;39.604;2022-12-24T08:04:03;101174.94;;;10.98;46.98
52032;BME280;38044;45.148;39.604;2022-12-24T08:06:29;101063.22;;;10.27;46.34
52032;BME280;38044;45.148;39.604;2022-12-24T08:08:54;101184.31;;;11.05;46.79
52032;BME280;38044;45.148;39.604;2022-12-24T08:11:20;101162.31;;;11.33;46.51
52032;BME280;38044;45.148;39.604;2022-12-24T08:13:46;101142.69;;;11.32;46.24
52032;BME280;38044;45.148;39.604;2022-12-24T08:16:12;101155.41;;;11.21;46.24
52032;BME280;38044;45.148;39.604;2022-12-24T08:18:38;101084.97;;;10.80;46.72
52032;BME280;38044;45.148;39.604;2022-12-24T08:21:06;101082.00;;;11.16;47.06
52032;BME280;38044;45.148;39.604;2022-12-24T08:23:34;101159.56;;;11.72;46.64
52032;BME280;38044;45.148;39.604;2022-12-24T08:26:00;101141.09;;;11.60;46.14
52032;BME280;38044;45.148;39.604;2022-12-24T08:28:26;101018.44;;;10.56;46.91
52032;BME280;38044;45.148;39.604;2022-12-24T08:30:52;100986.06;;;10.32;47.71
52032;BME280;38044;45.148;39.604;2022-12-24T08:33:18;101113.56;;;11.39;47.82
52032;BME280;38044;45.148;39.604;2022-12-24T08:35:52;101141.88;;;11.95;47.38
52032;BME280;38044;45.148;39.604;2022-12-24T08:38:18;101143.16;;;12.03;46.93
52032;BME280;38044;45.148;39.604;2022-12-24T08:40:45;101121.69;;;11.92;46.78
52032;BME280;38044;45.148;39.604;2022-12-24T08:43:15;101111.16;;;11.96;46.43
52032;BME280;38044;45.148;39.604;2022-12-24T08:45:41;101098.66;;;12.05;45.85
52032;BME280;38044;45.148;39.604;2022-12-24T08:48:08;101010.72;;;11.66;46.06
52032;BME280;38044;45.148;39.604;2022-12-24T08:50:36;101114.38;;;12.22;45.78
52032;BME280;38044;45.148;39.604;2022-12-24T08:53:03;101110.38;;;12.38;45.57
52032;BME280;38044;45.148;39.604;2022-12-24T08:55:29;101025.28;;;11.89;45.61
52032;BME280;38044;45.148;39.604;2022-12-24T08:57:55;101052.94;;;12.38;45.62
52032;BME280;38044;45.148;39.604;2022-12-24T09:00:20;101120.91;;;12.97;45.10
52032;BME280;38044;45.148;39.604;2022-12-24T09:02:46;101087.16;;;12.80;44.98
52032;BME280;38044;45.148;39.604;2022-12-24T09:05:12;100997.50;;;12.32;45.11
52032;BME280;38044;45.148;39.604;2022-12-24T09:07:38;101106.97;;;12.90;44.62
52032;BME280;38044;45.148;39.604;2022-12-24T09:10:04;101114.91;;;13.00;45.37
52032;BME280;38044;45.148;39.604;2022-12-24T09:12:30;101083.19;;;12.92;44.76
52032;BME280;38044;45.148;39.604;2022-12-24T09:14:56;101092.44;;;13.04;44.92
52032;BME280;38044;45.148;39.604;2022-12-24T09:17:22;100991.66;;;12.44;45.09
52032;BME280;38044;45.148;39.604;2022-12-24T09:19:48;101076.47;;;13.08;44.91
52032;BME280;38044;45.148;39.604;2022-12-24T09:22:14;100970.97;;;12.58;44.85
52032;BME280;38044;45.148;39.604;2022-12-24T09:24:40;101074.19;;;13.15;44.24
52032;BME280;38044;45.148;39.604;2022-12-24T09:27:05;101043.91;;;12.85;45.00
52032;BME280;38044;45.148;39.604;2022-12-24T09:29:31;101080.84;;;13.04;45.25
52032;BME280;38044;45.148;39.604;2022-12-24T09:31:57;100936.59;;;12.12;44.86
52032;BME280;38044;45.148;39.604;2022-12-24T09:34:24;100971.94;;;12.48;45.26
52032;BME280;38044;45.148;39.604;2022-12-24T09:36:50;100969.75;;;12.31;44.80
52032;BME280;38044;45.148;39.604;2022-12-24T09:39:19;100956.56;;;12.49;45.02
52032;BME280;38044;45.148;39.604;2022-12-24T09:47:32;101080.44;;;12.97;46.00
52032;BME280;38044;45.148;39.604;2022-12-24T09:50:02;101090.94;;;12.79;45.61
52032;BME280;38044;45.148;39.604;2022-12-24T09:52:32;101076.22;;;12.91;45.71
52032;BME280;38044;45.148;39.604;2022-12-24T09:55:24;101077.63;;;13.02;45.63
52032;BME280;38044;45.148;39.604;2022-12-24T09:57:53;101027.25;;;12.46;45.56
52032;BME280;38044;45.148;39.604;2022-12-24T10:00:32;101078.97;;;12.85;45.79
52032;BME280;38044;45.148;39.604;2022-12-24T10:03:00;101072.78;;;12.85;45.92
52032;BME280;38044;45.148;39.604;2022-12-24T10:05:39;101043.66;;;13.01;46.09
52032;BME280;38044;45.148;39.604;2022-12-24T10:10:52;101087.00;;;12.91;45.82
52032;BME280;38044;45.148;39.604;2022-12-24T10:13:45;101003.91;;;12.55;46.22
52032;BME280;38044;45.148;39.604;2022-12-24T10:27:13;101078.84;;;12.39;47.77
52032;BME280;38044;45.148;39.604;2022-12-24T10:29:46;101083.88;;;12.46;47.56
52032;BME280;38044;45.148;39.604;2022-12-24T10:32:33;101079.13;;;12.56;47.92
52032;BME280;38044;45.148;39.604;2022-12-24T10:35:10;100966.47;;;11.72;47.88
52032;BME280;38044;45.148;39.604;2022-12-24T10:37:42;101072.03;;;12.23;48.48
52032;BME280;38044;45.148;39.604;2022-12-24T10:40:33;100959.03;;;11.88;48.41
52032;BME280;38044;45.148;39.604;2022-12-24T10:43:18;101049.97;;;12.39;48.42
52032;BME280;38044;45.148;39.604;2022-12-24T10:45:50;101049.69;;;12.22;48.64
52032;BME280;38044;45.148;39.604;2022-12-24T10:48:40;101066.34;;;12.24;48.77
52032;BME280;38044;45.148;39.604;2022-12-24T10:51:20;101047.41;;;11.86;49.35
52032;BME280;38044;45.148;39.604;2022-12-24T10:56:24;100958.78;;;10.54;50.01
52032;BME280;38044;45.148;39.604;2022-12-24T10:58:52;100950.09;;;10.23;50.18
52032;BME280;38044;45.148;39.604;2022-12-24T11:04:03;101033.66;;;10.22;50.45
52032;BME280;38044;45.148;39.604;2022-12-24T11:06:29;101062.78;;;9.99;51.21
52032;BME280;38044;45.148;39.604;2022-12-24T11:09:16;101076.44;;;10.08;51.49
52032;BME280;38044;45.148;39.604;2022-12-24T11:11:45;101059.63;;;9.72;51.39
52032;BME280;38044;45.148;39.604;2022-12-24T11:14:15;101084.28;;;9.84;52.28
52032;BME280;38044;45.148;39.604;2022-12-24T11:16:53;101077.63;;;9.76;51.79
52032;BME280;38044;45.148;39.604;2022-12-24T11:19:29;101057.53;;;9.48;52.08
52032;BME280;38044;45.148;39.604;2022-12-24T11:22:02;101068.28;;;9.53;52.55
52032;BME280;38044;45.148;39.604;2022-12-24T11:24:35;101069.31;;;9.62;51.96
52032;BME280;38044;45.148;39.604;2022-12-24T11:27:27;101072.00;;;9.52;52.50
52032;BME280;38044;45.148;39.604;2022-12-24T11:32:40;101058.91;;;9.05;53.38
52032;BME280;38044;45.148;39.604;2022-12-24T11:35:14;101060.25;;;8.97;53.73
52032;BME280;38044;45.148;39.604;2022-12-24T11:37:40;101079.53;;;9.04;53.86
52032;BME280;38044;45.148;39.604;2022-12-24T11:40:21;101049.50;;;8.92;53.62
52032;BME280;38044;45.148;39.604;2022-12-24T11:42:48;101086.53;;;9.00;54.02
52032;BME280;38044;45.148;39.604;2022-12-24T11:45:27;101042.03;;;8.78;54.70
52032;BME280;38044;45.148;39.604;2022-12-24T11:47:54;100958.53;;;8.08;54.89
52032;BME280;38044;45.148;39.604;2022-12-24T11:50:34;101084.38;;;8.92;55.00
52032;BME280;38044;45.148;39.604;2022-12-24T11:55:49;101087.03;;;8.76;55.62
52032;BME280;38044;45.148;39.604;2022-12-24T12:00:42;101081.91;;;8.60;56.33
52032;BME280;38044;45.148;39.604;2022-12-24T12:03:31;101067.69;;;8.54;57.00
52032;BME280;38044;45.148;39.604;2022-12-24T12:05:59;101105.75;;;8.56;57.48
52032;BME280;38044;45.148;39.604;2022-12-24T12:08:28;101101.16;;;8.46;57.70
52032;BME280;38044;45.148;39.604;2022-12-24T12:10:56;101085.00;;;8.31;58.25
52032;BME280;38044;45.148;39.604;2022-12-24T12:13:29;101084.75;;;8.27;58.90
52032;BME280;38044;45.148;39.604;2022-12-24T12:18:56;101107.72;;;8.18;60.46
52032;BME280;38044;45.148;39.604;2022-12-24T12:21:37;101097.38;;;7.84;61.58
52032;BME280;38044;45.148;39.604;2022-12-24T12:24:14;101115.13;;;7.96;62.09
52032;BME280;38044;45.148;39.604;2022-12-24T12:26:44;100987.75;;;7.05;61.93
52032;BME280;38044;45.148;39.604;2022-12-24T12:29:26;101115.28;;;7.84;62.65
52032;BME280;38044;45.148;39.604;2022-12-24T12:31:57;101102.66;;;7.74;62.58
52032;BME280;38044;45.148;39.604;2022-12-24T12:34:33;101111.25;;;7.76;62.66
52032;BME280;38044;45.148;39.604;2022-12-24T12:37:34;101119.56;;;7.80;62.94
52032;BME280;38044;45.148;39.604;2022-12-24T12:40:02;101067.34;;;7.35;62.84
52032;BME280;38044;45.148;39.604;2022-12-24T12:42:36;101112.25;;;7.65;62.81
52032;BME280;38044;45.148;39.604;2022-12-24T12:45:26;101123.19;;;7.63;63.06
52032;BME280;38044;45.148;39.604;2022-12-24T12:54:03;101098.06;;;7.27;64.02
52032;BME280;38044;45.148;39.604;2022-12-24T12:56:34;101077.72;;;6.94;63.86
52032;BME280;38044;45.148;39.604;2022-12-24T12:59:19;101116.75;;;7.22;64.15
52032;BME280;38044;45.148;39.604;2022-12-24T13:07:25;101116.69;;;7.17;65.11
52032;BME280;38044;45.148;39.604;2022-12-24T13:12:55;101122.41;;;6.98;65.08
52032;BME280;38044;45.148;39.604;2022-12-24T13:15:45;101120.50;;;6.94;65.41
52032;BME280;38044;45.148;39.604;2022-12-24T13:20:48;101129.56;;;6.66;65.75
52032;BME280;38044;45.148;39.604;2022-12-24T13:23:20;101136.53;;;6.67;66.07
52032;BME280;38044;45.148;39.604;2022-12-24T13:25:50;101097.97;;;6.36;65.86
52032;BME280;38044;45.148;39.604;2022-12-24T13:28:31;101129.09;;;6.47;66.50
52032;BME280;38044;45.148;39.604;2022-12-24T13:36:06;101126.38;;;5.86;67.30
52032;BME280;38044;45.148;39.604;2022-12-24T13:38:56;101113.00;;;5.81;67.77
52032;BME280;38044;45.148;39.604;2022-12-24T13:49:44;101062.28;;;5.08;68.18
52032;BME280;38044;45.148;39.604;2022-12-24T13:55:05;101148.25;;;5.32;68.68
52032;BME280;38044;45.148;39.604;2022-12-24T13:57:37;101151.91;;;5.14;69.21
52032;BME280;38044;45.148;39.604;2022-12-24T14:00:26;101129.03;;;4.85;69.16
52032;BME280;38044;45.148;39.604;2022-12-24T14:05:47;101026.06;;;4.04;69.91
52032;BME280;38044;45.148;39.604;2022-12-24T14:08:39;101162.38;;;4.87;70.46
52032;BME280;38044;45.148;39.604;2022-12-24T14:11:20;101166.22;;;4.80;70.52
52032;BME280;38044;45.148;39.604;2022-12-24T14:16:27;101159.69;;;4.59;70.25
52032;BME280;38044;45.148;39.604;2022-12-24T14:19:09;101129.09;;;4.33;70.45
52032;BME280;38044;45.148;39.604;2022-12-24T14:21:42;101139.25;;;4.36;71.15
52032;BME280;38044;45.148;39.604;2022-12-24T14:24:18;101105.75;;;4.11;71.85
52032;BME280;38044;45.148;39.604;2022-12-24T14:26:51;101128.88;;;4.22;71.84
52032;BME280;38044;45.148;39.604;2022-12-24T14:29:23;101138.13;;;4.20;71.40